Time;durP1;ratioP1;P1;durP2;ratioP2;P2;SDS_P1;SDS_P2;PMS_P1;PMS_P2;Temp;Humidity;BMP_temperature;BMP_pressure;BME280_temperature;BME280_humidity;BME280_pressure;Samples;Min_cycle;Max_cycle;Signal;HPM_P1;HPM_P2
2023/10/13 00:01:11;;;;;;;6.80;3.00;;;;;;;14.98;100.00;99949.34;107540;1254;71460;-50
2023/10/13 00:03:40;;;;;;;3.60;2.40;;;;;;;14.97;100.00;99949.63;105696;1254;61812;-50
2023/10/13 00:06:08;;;;;;;5.80;2.70;;;;;;;14.96;100.00;99946.63;105212;1254;60662;-50
2023/10/13 00:08:39;;;;;;;3.90;3.00;;;;;;;14.96;100.00;99949.87;109070;1253;72722;-51
2023/10/13 00:11:13;;;;;;;3.80;2.80;;;;;;;14.96;100.00;99946.25;105800;1255;68076;-50
2023/10/13 00:13:49;;;;;;;5.20;2.70;;;;;;;14.96;100.00;99952.37;104515;1254;71528;-48
2023/10/13 00:16:21;;;;;;;5.00;2.50;;;;;;;14.96;100.00;99946.42;104780;1257;60642;-47
2023/10/13 00:18:54;;;;;;;4.30;3.50;;;;;;;14.96;100.00;99949.34;106393;1258;60074;-48
2023/10/13 00:21:31;;;;;;;6.20;2.90;;;;;;;14.96;100.00;99942.86;105502;1254;73895;-50
2023/10/13 00:24:05;;;;;;;3.60;2.80;;;;;;;14.95;100.00;99936.90;104710;1260;68113;-48
2023/10/13 00:26:36;;;;;;;3.50;1.70;;;;;;;14.95;100.00;99933.65;104740;1254;71415;-50
2023/10/13 00:29:16;;;;;;;3.60;2.70;;;;;;;14.96;100.00;99937.41;105285;1256;62643;-50
2023/10/13 00:31:44;;;;;;;3.90;2.20;;;;;;;14.96;100.00;99930.71;107029;1256;59196;-50
2023/10/13 00:34:37;;;;;;;8.80;3.10;;;;;;;14.96;100.00;99929.08;105559;1253;72583;-50
2023/10/13 00:37:17;;;;;;;3.60;2.30;;;;;;;14.96;100.00;99927.44;104658;1253;66550;-49
2023/10/13 00:39:45;;;;;;;4.70;2.50;;;;;;;14.97;100.00;99931.77;105621;1254;72725;-49
2023/10/13 00:42:30;;;;;;;4.50;3.60;;;;;;;14.97;100.00;99932.48;105002;1253;61249;-49
2023/10/13 00:44:59;;;;;;;3.50;2.20;;;;;;;14.97;100.00;99939.68;105961;1253;60574;-48
2023/10/13 00:50:05;;;;;;;4.70;2.70;;;;;;;14.97;100.00;99959.80;105663;1257;66210;-48
2023/10/13 00:52:32;;;;;;;3.30;2.50;;;;;;;14.97;100.00;99960.30;108959;1253;71470;-51
2023/10/13 00:55:00;;;;;;;4.80;3.00;;;;;;;14.97;100.00;99956.83;108741;1253;61966;-47
2023/10/13 00:57:28;;;;;;;6.60;2.10;;;;;;;14.97;100.00;99955.77;109033;1253;60566;-47
2023/10/13 00:59:57;;;;;;;4.70;2.80;;;;;;;14.97;100.00;99967.48;108920;1253;73863;-48
2023/10/13 01:02:39;;;;;;;2.70;2.50;;;;;;;14.98;100.00;99969.95;108899;1253;66806;-48
2023/10/13 01:05:11;;;;;;;3.60;2.20;;;;;;;15.00;100.00;99972.01;108956;1254;72207;-48
2023/10/13 01:07:39;;;;;;;3.20;1.90;;;;;;;15.01;100.00;99972.68;109004;1253;60448;-48
2023/10/13 01:10:14;;;;;;;4.60;2.40;;;;;;;15.01;100.00;99967.44;109046;1253;58870;-49
2023/10/13 01:12:45;;;;;;;3.90;2.70;;;;;;;15.02;100.00;99961.23;108994;1253;73984;-48
2023/10/13 01:15:17;;;;;;;2.90;1.90;;;;;;;15.02;100.00;99964.27;109058;1253;68302;-48
2023/10/13 01:17:45;;;;;;;5.00;2.10;;;;;;;15.02;100.00;99967.20;108860;1254;73736;-48
2023/10/13 01:20:26;;;;;;;4.90;2.50;;;;;;;15.02;100.00;99968.09;109032;1253;60503;-48
2023/10/13 01:22:56;;;;;;;3.50;2.10;;;;;;;15.02;100.00;99969.17;108897;1253;60758;-48
2023/10/13 01:25:27;;;;;;;3.40;2.30;;;;;;;15.02;100.00;99972.61;109073;1257;73846;-47
2023/10/13 01:27:57;;;;;;;2.90;2.10;;;;;;;15.01;100.00;99973.00;108984;1253;66471;-48
2023/10/13 01:30:26;;;;;;;5.60;2.50;;;;;;;15.01;100.00;99978.98;108899;1254;71474;-48
2023/10/13 01:32:54;;;;;;;4.40;1.80;;;;;;;15.01;100.00;99980.63;108987;1255;61674;-46
2023/10/13 01:35:27;;;;;;;4.90;2.50;;;;;;;15.02;100.00;99986.19;108962;1254;59517;-49
2023/10/13 01:37:54;;;;;;;4.10;2.00;;;;;;;15.01;100.00;99986.23;108927;1253;72653;-49
2023/10/13 01:40:28;;;;;;;4.20;2.40;;;;;;;15.01;100.00;99990.35;105842;1257;66336;-49
2023/10/13 01:42:56;;;;;;;3.70;2.20;;;;;;;15.02;100.00;99994.46;106135;1256;71121;-48
2023/10/13 01:45:28;;;;;;;5.20;2.90;;;;;;;15.03;100.00;99997.67;104811;1258;60480;-50
2023/10/13 01:47:56;;;;;;;4.00;2.10;;;;;;;15.02;100.00;100005.48;105609;1254;60500;-49
2023/10/13 01:50:30;;;;;;;4.30;1.60;;;;;;;15.02;100.00;100005.13;105098;1254;72711;-50
2023/10/13 01:53:11;;;;;;;3.00;2.70;;;;;;;15.01;100.00;100009.34;104618;1257;67527;-48
2023/10/13 01:55:43;;;;;;;3.00;2.30;;;;;;;15.00;100.00;100011.40;108653;1253;71508;-48
2023/10/13 01:58:15;;;;;;;5.40;2.20;;;;;;;14.99;100.00;100017.27;104708;1256;60467;-51
2023/10/13 02:00:43;;;;;;;5.00;2.90;;;;;;;14.97;100.00;100023.88;104785;1253;60381;-49
2023/10/13 02:03:17;;;;;;;4.20;1.80;;;;;;;14.95;100.00;100024.35;106928;1255;75472;-51
2023/10/13 02:05:49;;;;;;;3.50;1.60;;;;;;;14.95;100.00;100029.11;104510;1258;68394;-51
2023/10/13 02:08:22;;;;;;;3.00;2.40;;;;;;;14.94;100.00;100036.91;104605;1253;71258;-48
2023/10/13 02:10:51;;;;;;;6.30;2.10;;;;;;;14.93;100.00;100037.70;108924;1253;59845;-49
2023/10/13 02:13:20;;;;;;;3.50;2.20;;;;;;;14.93;100.00;100040.23;105592;1253;60374;-51
2023/10/13 02:15:51;;;;;;;3.50;2.20;;;;;;;14.92;100.00;100042.80;104872;1253;73428;-49
2023/10/13 02:18:26;;;;;;;2.60;1.90;;;;;;;14.91;100.00;100045.92;107429;1257;66769;-49
2023/10/13 02:20:55;;;;;;;3.60;1.80;;;;;;;14.90;100.00;100055.38;105255;1254;71473;-49
2023/10/13 02:23:24;;;;;;;2.20;1.70;;;;;;;14.90;100.00;100055.38;105827;1254;61277;-51
2023/10/13 02:26:00;;;;;;;4.40;2.30;;;;;;;14.90;100.00;100057.40;104735;1253;60463;-50
2023/10/13 02:28:33;;;;;;;2.90;1.90;;;;;;;14.89;100.00;100061.80;104920;1253;73867;-49
2023/10/13 02:31:04;;;;;;;3.20;2.20;;;;;;;14.88;100.00;100064.75;104892;1258;66506;-50
2023/10/13 02:33:36;;;;;;;4.90;2.20;;;;;;;14.88;100.00;100064.74;104960;1257;73195;-47
2023/10/13 02:36:05;;;;;;;3.00;1.60;;;;;;;14.88;100.00;100067.48;104912;1256;60815;-49
2023/10/13 02:42:00;;;;;;;4.80;2.30;;;;;;;14.86;100.00;100071.90;104725;1259;73954;-49
2023/10/13 02:44:01;;;;;;;;;;;;;;;14.85;100.00;100072.86;104777;1253;65850;-50
2023/10/13 02:46:29;;;;;;;3.10;2.20;;;;;;;14.85;100.00;100071.06;104639;1253;72723;-48
2023/10/13 02:48:58;;;;;;;2.80;2.60;;;;;;;14.84;100.00;100066.58;105790;1253;60623;-50
2023/10/13 02:51:36;;;;;;;4.60;2.40;;;;;;;14.85;100.00;100070.74;107027;1257;60227;-50
2023/10/13 02:54:10;;;;;;;6.50;3.10;;;;;;;14.84;100.00;100073.48;104763;1258;74767;-49
2023/10/13 02:56:48;;;;;;;4.20;2.40;;;;;;;14.84;100.00;100075.84;105369;1253;67523;-50
2023/10/13 02:59:19;;;;;;;4.30;3.10;;;;;;;14.84;100.00;100076.56;105501;1258;73115;-51
2023/10/13 03:01:51;;;;;;;5.40;3.50;;;;;;;14.84;100.00;100082.15;105169;1253;60515;-51
2023/10/13 03:04:25;;;;;;;6.60;3.50;;;;;;;14.84;100.00;100088.11;105046;1253;60598;-50
2023/10/13 03:06:53;;;;;;;8.00;3.40;;;;;;;14.84;100.00;100089.23;104928;1253;72680;-50
2023/10/13 03:09:21;;;;;;;3.60;3.30;;;;;;;14.83;100.00;100087.27;104809;1253;67413;-50
2023/10/13 03:11:50;;;;;;;3.20;2.90;;;;;;;14.83;100.00;100089.10;105252;1253;71012;-50
2023/10/13 03:14:31;;;;;;;4.00;3.60;;;;;;;14.82;100.00;100089.86;104849;1253;60477;-50
2023/10/13 03:17:08;;;;;;;5.80;3.10;;;;;;;14.81;100.00;100090.99;105152;1258;60541;-50
2023/10/13 03:19:36;;;;;;;4.50;3.50;;;;;;;14.81;100.00;100094.42;108995;1253;72622;-50
2023/10/13 03:22:11;;;;;;;3.70;3.40;;;;;;;14.81;100.00;100096.23;109042;1257;67056;-51
2023/10/13 03:24:46;;;;;;;6.70;2.70;;;;;;;14.81;100.00;100099.85;106718;1256;71403;-48
2023/10/13 03:27:23;;;;;;;7.90;3.70;;;;;;;14.82;100.00;100098.91;104752;1258;61737;-50
2023/10/13 03:30:00;;;;;;;6.10;4.50;;;;;;;14.83;100.00;100103.02;105443;1254;60495;-50
2023/10/13 03:32:30;;;;;;;6.30;4.20;;;;;;;14.83;100.00;100103.55;104915;1258;76497;-51
2023/10/13 03:38:02;;;;;;;4.20;3.80;;;;;;;14.84;100.00;100110.89;104861;1255;71496;-49
2023/10/13 03:43:09;;;;;;;6.60;3.60;;;;;;;14.83;100.00;100106.25;105413;1255;60630;-49
2023/10/13 03:45:47;;;;;;;5.40;4.10;;;;;;;14.84;100.00;100104.59;104745;1258;73972;-49
2023/10/13 03:51:03;;;;;;;4.40;3.90;;;;;;;14.82;100.00;100105.59;106029;1253;71176;-50
2023/10/13 03:53:35;;;;;;;5.50;3.60;;;;;;;14.81;100.00;100108.32;104766;1256;62075;-50
2023/10/13 03:56:15;;;;;;;4.90;4.00;;;;;;;14.80;100.00;100112.02;104767;1253;60774;-51
2023/10/13 03:58:45;;;;;;;4.20;3.40;;;;;;;14.79;100.00;100116.77;104709;1255;72728;-49
2023/10/13 04:01:17;;;;;;;4.70;4.10;;;;;;;14.79;100.00;100117.18;104830;1253;66709;-50
2023/10/13 04:03:57;;;;;;;3.70;3.40;;;;;;;14.78;100.00;100123.70;109027;1253;71508;-51
2023/10/13 04:06:51;;;;;;;5.20;3.10;;;;;;;14.78;100.00;100123.20;108940;1253;61786;-52
2023/10/13 04:17:27;;;;;;;6.60;4.20;;;;;;;14.81;100.00;100131.27;108632;1253;309213;-52
2023/10/13 04:21:36;;;;;;;4.30;3.90;;;;;;;14.85;100.00;100142.08;101791;1292;600015;-49
2023/10/13 04:27:27;;;;;;;4.50;4.10;;;;;;;14.86;100.00;100147.81;103847;1267;60628;-48
2023/10/13 04:29:52;;;;;;;4.20;3.60;;;;;;;14.87;100.00;100156.08;103890;1270;72338;-50
2023/10/13 04:32:28;;;;;;;5.30;4.20;;;;;;;14.87;100.00;100162.04;103809;1270;66423;-51
2023/10/13 04:35:17;;;;;;;5.70;3.80;;;;;;;14.87;100.00;100164.58;107979;1263;190949;-51
2023/10/13 04:37:58;;;;;;;7.10;4.20;;;;;;;14.87;100.00;100166.55;108098;1264;61837;-51
2023/10/13 04:40:26;;;;;;;5.40;3.90;;;;;;;14.87;100.00;100170.52;108205;1266;58847;-52
2023/10/13 04:42:57;;;;;;;6.90;3.60;;;;;;;14.88;100.00;100174.28;108063;1267;71059;-51
2023/10/13 04:50:47;;;;;;;4.90;3.70;;;;;;;14.88;100.00;100182.37;108293;1267;60617;-51
2023/10/13 05:45:24;;;;;;;5.60;3.40;;;;;;;15.08;100.00;100259.76;103987;1267;62371;-50
2023/10/13 05:48:11;;;;;;;6.60;2.80;;;;;;;15.07;100.00;100263.06;103879;1269;59977;-52
2023/10/13 06:29:28;;;;;;;2.30;2.10;;;;;;;15.27;100.00;100302.44;103799;1266;60630;-49
2023/10/13 06:31:57;;;;;;;3.80;2.60;;;;;;;15.31;100.00;100306.33;103926;1267;73174;-49
2023/10/13 06:34:37;;;;;;;3.60;1.60;;;;;;;15.37;100.00;100310.69;104000;1266;66941;-49
2023/10/13 06:40:19;;;;;;;4.60;1.70;;;;;;;15.42;100.00;100312.02;104009;1267;61005;-49
2023/10/13 06:42:47;;;;;;;2.70;1.60;;;;;;;15.44;100.00;100312.95;105301;1272;60934;-50
2023/10/13 06:45:18;;;;;;;3.50;1.80;;;;;;;15.46;100.00;100320.29;103960;1266;73113;-49
2023/10/13 06:47:45;;;;;;;3.10;1.30;;;;;;;15.47;100.00;100326.01;103899;1272;66457;-52
2023/10/13 06:50:16;;;;;;;2.60;1.70;;;;;;;15.50;100.00;100334.70;104656;1270;71506;-53
2023/10/13 06:52:47;;;;;;;3.40;1.40;;;;;;;15.54;100.00;100336.82;108124;1267;60497;-52
2023/10/13 06:55:23;;;;;;;4.70;1.90;;;;;;;15.56;100.00;100334.90;108257;1267;58843;-51
2023/10/13 06:57:51;;;;;;;2.50;1.60;;;;;;;15.59;100.00;100337.59;108034;1266;74988;-51
2023/10/13 07:00:34;;;;;;;5.10;2.20;;;;;;;15.61;100.00;100342.74;108124;1266;70509;-52
2023/10/13 07:03:21;;;;;;;4.20;1.70;;;;;;;15.61;100.00;100342.77;104924;1269;71407;-51
2023/10/13 07:05:48;;;;;;;2.40;1.50;;;;;;;15.61;100.00;100341.82;103924;1267;60518;-49
2023/10/13 07:08:23;;;;;;;3.60;1.90;;;;;;;15.62;100.00;100349.90;108055;1268;60442;-51
2023/10/13 07:11:05;;;;;;;2.90;1.30;;;;;;;15.63;100.00;100355.67;108297;1264;71918;-51
2023/10/13 07:13:38;;;;;;;2.10;1.30;;;;;;;15.62;100.00;100355.02;108392;1263;65674;-50
2023/10/13 07:16:07;;;;;;;3.50;1.50;;;;;;;15.61;100.00;100358.15;108446;1260;72720;-52
2023/10/13 07:18:42;;;;;;;3.00;1.50;;;;;;;15.61;100.00;100364.10;108532;1259;61623;-52
2023/10/13 07:21:09;;;;;;;2.40;1.10;;;;;;;15.63;100.00;100363.44;108683;1260;60032;-50
2023/10/13 07:23:37;;;;;;;1.80;1.20;;;;;;;15.66;100.00;100366.70;108398;1261;71860;-51
2023/10/13 07:26:06;;;;;;;3.10;1.60;;;;;;;15.69;100.00;100358.92;108493;1261;66411;-51
2023/10/13 07:28:36;;;;;;;3.00;1.40;;;;;;;15.74;100.00;100363.67;108555;1261;71445;-51
2023/10/13 07:33:31;;;;;;;2.40;1.60;;;;;;;15.84;100.00;100361.21;108498;1260;57847;-51
2023/10/13 07:36:00;;;;;;;4.10;1.30;;;;;;;15.87;100.00;100361.41;108533;1260;71834;-51
2023/10/13 07:38:30;;;;;;;5.40;1.60;;;;;;;15.88;100.00;100364.05;108530;1260;67577;-49
2023/10/13 07:41:07;;;;;;;2.10;1.00;;;;;;;15.86;100.00;100366.38;108634;1260;71013;-50
2023/10/13 07:43:37;;;;;;;3.20;1.30;;;;;;;15.81;100.00;100369.05;108472;1260;61726;-50
2023/10/13 07:46:09;;;;;;;2.90;1.40;;;;;;;15.78;100.00;100366.16;108521;1261;61311;-51
2023/10/13 07:48:37;;;;;;;2.30;1.60;;;;;;;15.76;100.00;100368.96;105323;1260;73009;-50
2023/10/13 07:51:18;;;;;;;3.80;1.30;;;;;;;15.75;100.00;100371.38;108379;1260;68244;-50
2023/10/13 07:53:49;;;;;;;2.60;1.60;;;;;;;15.76;100.00;100372.06;105800;1265;73634;-48
2023/10/13 07:56:18;;;;;;;5.80;2.10;;;;;;;15.77;100.00;100374.16;104336;1267;60518;-50
2023/10/13 07:58:52;;;;;;;2.30;1.50;;;;;;;15.78;100.00;100378.44;108219;1261;58908;-50
2023/10/13 08:01:21;;;;;;;5.70;1.90;;;;;;;15.79;100.00;100384.00;104174;1261;73063;-51
2023/10/13 08:04:04;;;;;;;3.30;1.40;;;;;;;15.81;100.00;100385.90;106174;1263;67036;-51
2023/10/13 08:06:31;;;;;;;3.30;1.50;;;;;;;15.81;100.00;100387.67;104414;1261;71504;-50
2023/10/13 08:09:08;;;;;;;3.90;1.80;;;;;;;15.82;100.00;100392.48;104118;1260;61767;-51
2023/10/13 08:11:37;;;;;;;5.10;2.10;;;;;;;15.86;100.00;100398.41;104019;1261;59648;-50
2023/10/13 08:14:11;;;;;;;2.90;1.80;;;;;;;15.86;100.00;100401.27;104616;1262;73130;-49
2023/10/13 08:17:00;;;;;;;2.00;1.80;;;;;;;15.83;100.00;100407.11;105144;1261;66803;-50
2023/10/13 08:19:31;;;;;;;3.60;1.70;;;;;;;15.76;100.00;100414.94;104799;1260;71789;-50
2023/10/13 08:21:59;;;;;;;3.40;1.20;;;;;;;15.68;100.00;100413.98;104299;1260;62994;-50
2023/10/13 08:38:13;;;;;;;2.20;1.10;;;;;;;15.35;100.00;100414.61;104431;1260;60531;-49
2023/10/13 08:43:13;;;;;;;2.70;1.60;;;;;;;15.44;100.00;100422.58;104266;1265;65995;-50
2023/10/13 09:07:21;;;;;;;1.60;0.70;;;;;;;15.86;100.00;100444.56;104747;1258;73916;-48
2023/10/13 09:15:06;;;;;;;1.30;0.70;;;;;;;15.85;100.00;100444.98;104494;1260;60409;-48
2023/10/13 09:17:41;;;;;;;2.50;0.70;;;;;;;15.89;100.00;100444.04;106877;1259;59660;-49
2023/10/13 09:25:34;;;;;;;3.40;0.80;;;;;;;16.18;100.00;100445.16;104523;1259;71258;-49
2023/10/13 09:28:21;;;;;;;1.50;0.90;;;;;;;16.27;100.00;100448.41;104744;1259;60578;-49
2023/10/13 09:30:53;;;;;;;2.60;1.40;;;;;;;16.33;100.00;100450.04;104471;1260;60642;-49
2023/10/13 09:33:29;;;;;;;2.30;1.00;;;;;;;16.33;100.00;100445.18;104369;1260;73959;-48
2023/10/13 09:35:59;;;;;;;3.70;0.70;;;;;;;16.32;100.00;100447.39;104480;1260;66608;-49
2023/10/13 09:38:34;;;;;;;1.80;0.80;;;;;;;16.37;100.00;100444.39;104360;1260;73085;-51
2023/10/13 09:41:26;;;;;;;1.00;0.70;;;;;;;16.43;100.00;100447.77;104587;1261;60614;-51
2023/10/13 09:43:52;;;;;;;1.70;1.20;;;;;;;16.45;100.00;100446.39;104220;1260;60671;-49
2023/10/13 09:46:23;;;;;;;3.20;0.60;;;;;;;16.47;100.00;100449.73;104234;1260;72599;-51
2023/10/13 09:49:04;;;;;;;1.80;0.70;;;;;;;16.51;100.00;100457.59;106844;1260;65791;-48
2023/10/13 09:51:31;;;;;;;1.80;0.70;;;;;;;16.56;100.00;100455.89;104498;1260;73218;-50
2023/10/13 09:54:16;;;;;;;1.50;0.80;;;;;;;16.54;100.00;100454.56;104369;1262;60471;-47
2023/10/13 09:57:09;;;;;;;2.50;0.70;;;;;;;16.45;100.00;100458.54;105282;1259;60568;-50
2023/10/13 09:59:52;;;;;;;1.60;0.80;;;;;;;16.39;100.00;100460.03;104593;1259;72682;-49
2023/10/13 10:02:26;;;;;;;2.10;0.60;;;;;;;16.38;100.00;100459.02;108567;1260;67581;-50
2023/10/13 10:04:56;;;;;;;2.10;0.60;;;;;;;16.38;100.00;100453.38;105269;1259;71449;-48
2023/10/13 10:07:28;;;;;;;1.20;0.70;;;;;;;16.40;100.00;100447.29;104274;1261;62980;-49
2023/10/13 10:09:56;;;;;;;2.70;0.60;;;;;;;16.46;100.00;100446.20;104544;1260;60519;-49
2023/10/13 10:12:57;;;;;;;1.70;0.60;;;;;;;16.52;100.00;100440.13;108513;1260;73906;-48
2023/10/13 10:15:47;;;;;;;1.50;0.70;;;;;;;16.62;100.00;100443.77;108592;1259;65671;-49
2023/10/13 10:18:27;;;;;;;1.10;0.50;;;;;;;16.68;100.00;100443.20;108591;1261;71474;-51
2023/10/13 10:21:09;;;;;;;3.00;0.60;;;;;;;16.71;100.00;100441.94;108616;1260;59097;-50
2023/10/13 10:23:39;;;;;;;2.30;0.70;;;;;;;16.76;100.00;100447.05;108677;1259;61054;-50
2023/10/13 10:26:11;;;;;;;1.50;0.80;;;;;;;16.82;100.00;100444.33;108528;1260;72675;-49
2023/10/13 10:28:41;;;;;;;1.90;0.60;;;;;;;16.86;100.00;100447.86;108635;1258;65709;-51
2023/10/13 10:31:12;;;;;;;1.10;0.60;;;;;;;16.89;100.00;100446.96;108527;1259;71545;-49
2023/10/13 10:33:41;;;;;;;2.10;0.60;;;;;;;16.88;100.00;100447.95;108546;1259;59201;-50
2023/10/13 10:36:14;;;;;;;0.80;0.60;;;;;;;16.83;100.00;100455.48;108542;1260;59412;-51
2023/10/13 10:38:52;;;;;;;1.80;0.50;;;;;;;16.76;100.00;100458.48;108689;1259;76151;-50
2023/10/13 10:41:29;;;;;;;1.00;0.50;;;;;;;16.68;100.00;100455.55;108495;1259;65827;-52
2023/10/13 10:44:02;;;;;;;3.90;0.40;;;;;;;16.62;100.00;100457.35;108492;1259;72682;-49
2023/10/13 10:46:41;;;;;;;1.20;0.70;;;;;;;16.58;100.00;100459.19;104858;1260;60468;-51
2023/10/13 10:49:09;;;;;;;2.00;0.40;;;;;;;16.58;100.00;100457.00;106538;1263;60498;-50
2023/10/13 10:51:43;;;;;;;1.20;0.60;;;;;;;16.61;100.00;100454.48;104490;1260;73097;-50
2023/10/13 10:54:20;;;;;;;1.00;0.50;;;;;;;16.66;100.00;100450.58;106297;1260;67277;-50
2023/10/13 10:56:53;;;;;;;4.70;0.60;;;;;;;16.74;100.00;100443.95;108704;1254;73128;-52
2023/10/13 10:59:24;;;;;;;2.30;0.80;;;;;;;16.77;100.00;100441.52;105103;1257;60694;-49
2023/10/13 11:01:52;;;;;;;1.20;0.60;;;;;;;16.78;100.00;100435.84;108763;1257;59576;-50
2023/10/13 11:06:56;;;;;;;1.10;0.50;;;;;;;16.84;100.00;100442.38;104635;1261;67022;-49
2023/10/13 11:12:14;;;;;;;1.10;0.50;;;;;;;16.88;100.00;100442.32;105928;1256;60764;-49
2023/10/13 11:14:49;;;;;;;1.10;0.60;;;;;;;16.92;100.00;100439.67;104840;1260;60340;-51
2023/10/13 11:17:41;;;;;;;2.70;0.70;;;;;;;16.95;100.00;100436.05;108013;1258;72434;-49
2023/10/13 11:20:16;;;;;;;0.90;0.40;;;;;;;17.01;100.00;100433.49;104829;1261;65530;-51
2023/10/13 11:22:47;;;;;;;1.70;0.40;;;;;;;17.09;100.00;100438.98;105464;1258;72723;-48
2023/10/13 11:25:22;;;;;;;0.70;0.40;;;;;;;17.14;100.00;100448.59;104736;1259;60109;-49
2023/10/13 11:30:25;;;;;;;2.90;0.50;;;;;;;17.21;100.00;100458.15;104627;1257;74326;-49
2023/10/13 11:33:07;;;;;;;0.50;0.40;;;;;;;17.20;100.00;100458.20;106779;1256;66934;-50
2023/10/13 11:38:43;;;;;;;0.90;0.60;;;;;;;17.17;100.00;100451.87;104792;1259;60574;-50
2023/10/13 11:41:18;;;;;;;0.70;0.50;;;;;;;17.19;100.00;100451.39;107506;1257;60562;-50
2023/10/13 11:49:17;;;;;;;1.00;0.40;;;;;;;17.25;100.00;100450.62;104834;1254;71606;-50
2023/10/13 11:51:49;;;;;;;0.80;0.40;;;;;;;17.28;100.00;100447.50;105154;1257;60626;-50
2023/10/13 11:54:17;;;;;;;3.00;0.50;;;;;;;17.28;100.00;100440.40;104967;1259;60436;-47
2023/10/13 11:56:46;;;;;;;1.80;0.60;;;;;;;17.28;100.00;100443.29;105913;1256;73803;-48
2023/10/13 11:59:24;;;;;;;2.70;0.70;;;;;;;17.28;100.00;100444.56;105739;1259;67863;-48
2023/10/13 12:04:51;;;;;;;0.70;0.50;;;;;;;17.23;100.00;100448.21;104733;1254;60410;-50
2023/10/13 12:10:16;;;;;;;2.20;0.60;;;;;;;17.05;100.00;100448.98;104779;1260;72677;-48
2023/10/13 12:12:46;;;;;;;0.80;0.60;;;;;;;17.00;100.00;100444.26;104943;1260;66801;-49
2023/10/13 12:15:25;;;;;;;2.80;0.70;;;;;;;16.97;100.00;100444.43;105086;1258;71581;-49
2023/10/13 12:17:57;;;;;;;0.70;0.50;;;;;;;16.96;100.00;100449.05;105291;1256;60556;-49
2023/10/13 12:20:32;;;;;;;1.00;0.60;;;;;;;16.96;100.00;100447.77;104668;1257;60606;-48
2023/10/13 12:23:09;;;;;;;0.90;0.50;;;;;;;16.97;100.00;100448.45;105682;1256;73500;-48
2023/10/13 12:28:26;;;;;;;0.90;0.50;;;;;;;16.97;100.00;100442.43;104750;1262;72612;-51
2023/10/13 12:30:57;;;;;;;0.70;0.50;;;;;;;16.99;100.00;100437.77;105008;1255;60652;-49
2023/10/13 12:33:25;;;;;;;1.50;0.50;;;;;;;17.02;100.00;100442.98;108848;1256;58837;-51
2023/10/13 12:52:16;;;;;;;1.10;0.50;;;;;;;17.06;100.00;100453.31;104748;1256;66616;-48
2023/10/13 12:54:47;;;;;;;1.00;0.50;;;;;;;17.03;100.00;100452.52;105316;1256;73233;-49
2023/10/13 12:57:15;;;;;;;2.50;0.50;;;;;;;17.03;100.00;100450.55;104766;1257;60368;-50
2023/10/13 12:59:43;;;;;;;0.90;0.50;;;;;;;17.02;100.00;100455.70;105037;1256;61702;-51
2023/10/13 13:02:15;;;;;;;0.90;0.60;;;;;;;17.01;100.00;100452.71;105129;1256;72714;-48
2023/10/13 13:04:50;;;;;;;1.10;0.50;;;;;;;17.02;100.00;100460.59;105341;1262;66839;-50
2023/10/13 13:07:18;;;;;;;1.30;0.50;;;;;;;17.04;100.00;100465.58;105222;1256;75060;-49
2023/10/13 13:09:45;;;;;;;0.90;0.40;;;;;;;17.03;100.00;100465.63;105593;1262;60488;-50
2023/10/13 13:12:13;;;;;;;1.00;0.40;;;;;;;17.01;100.00;100463.58;104640;1256;60520;-49
2023/10/13 13:14:45;;;;;;;0.90;0.50;;;;;;;17.00;100.00;100463.08;104765;1255;72626;-47
2023/10/13 13:17:13;;;;;;;0.80;0.50;;;;;;;17.00;100.00;100465.13;108858;1256;66748;-49
2023/10/13 13:19:41;;;;;;;1.40;0.40;;;;;;;16.99;100.00;100462.45;108820;1256;73156;-51
2023/10/13 13:22:11;;;;;;;2.10;0.40;;;;;;;16.98;100.00;100465.55;108810;1256;60094;-49
2023/10/13 13:24:46;;;;;;;0.80;0.40;;;;;;;17.00;100.00;100468.92;108945;1256;61768;-50
2023/10/13 13:27:14;;;;;;;;;;;;;;;17.01;100.00;100470.69;108902;1256;72929;-51
2023/10/13 13:29:42;;;;;;;1.00;0.40;;;;;;;17.01;100.00;100463.25;108816;1256;67115;-50
2023/10/13 13:32:24;;;;;;;0.60;0.40;;;;;;;17.00;100.00;100467.98;108875;1256;72682;-51
2023/10/13 13:35:04;;;;;;;1.60;0.40;;;;;;;16.99;100.00;100464.95;108718;1260;60174;-50
2023/10/13 13:37:32;;;;;;;0.80;0.40;;;;;;;16.98;100.00;100469.41;108804;1255;59467;-51
2023/10/13 13:40:13;;;;;;;1.10;0.40;;;;;;;16.97;100.00;100467.12;108876;1259;72640;-51
2023/10/13 13:42:44;;;;;;;0.60;0.40;;;;;;;16.96;100.00;100469.67;108823;1257;66703;-52
2023/10/13 13:45:27;;;;;;;0.90;0.50;;;;;;;16.96;100.00;100472.95;108771;1257;71429;-51
2023/10/13 13:47:55;;;;;;;1.70;0.50;;;;;;;16.95;100.00;100468.12;108796;1256;61505;-50
2023/10/13 13:50:29;;;;;;;5.70;0.50;;;;;;;16.93;100.00;100467.86;108837;1256;58862;-51
2023/10/13 13:52:57;;;;;;;1.20;0.50;;;;;;;16.90;100.00;100461.36;108826;1256;73940;-51
2023/10/13 13:55:28;;;;;;;0.60;0.40;;;;;;;16.88;100.00;100456.98;108809;1255;68051;-50
2023/10/13 13:57:56;;;;;;;2.90;0.40;;;;;;;16.86;100.00;100461.27;108819;1256;71438;-49
2023/10/13 14:00:37;;;;;;;0.40;0.40;;;;;;;16.83;100.00;100462.35;107780;1259;60630;-50
2023/10/13 14:03:06;;;;;;;1.70;0.50;;;;;;;16.78;100.00;100468.13;106843;1255;60477;-50
2023/10/13 14:05:33;;;;;;;2.20;0.40;;;;;;;16.74;100.00;100466.40;104758;1259;74419;-51
2023/10/13 14:08:01;;;;;;;1.50;0.50;;;;;;;16.70;100.00;100464.66;104967;1261;66817;-51
2023/10/13 14:10:31;;;;;;;0.60;0.40;;;;;;;16.66;100.00;100467.83;104599;1259;72740;-48
2023/10/13 14:13:13;;;;;;;1.30;0.40;;;;;;;16.63;100.00;100470.90;104805;1262;60979;-50
2023/10/13 14:15:43;;;;;;;0.90;0.50;;;;;;;16.59;100.00;100477.95;104786;1259;60738;-49
2023/10/13 14:18:17;;;;;;;2.10;0.50;;;;;;;16.55;100.00;100476.02;108463;1259;72731;-48
2023/10/13 14:20:45;;;;;;;0.80;0.40;;;;;;;16.52;100.00;100477.52;104735;1257;66607;-50
2023/10/13 14:23:12;;;;;;;1.00;0.40;;;;;;;16.46;100.00;100480.56;104711;1259;74297;-50
2023/10/13 14:25:44;;;;;;;0.40;0.40;;;;;;;16.43;100.00;100482.77;104613;1262;60519;-52
2023/10/13 14:28:17;;;;;;;2.70;0.40;;;;;;;16.38;100.00;100487.97;104700;1259;60438;-48
2023/10/13 14:30:45;;;;;;;0.50;0.50;;;;;;;16.34;100.00;100490.05;104774;1262;73827;-49
2023/10/13 14:33:12;;;;;;;0.80;0.50;;;;;;;16.30;100.00;100491.39;104465;1262;65651;-50
2023/10/13 14:35:40;;;;;;;1.30;0.50;;;;;;;16.25;100.00;100494.56;104744;1259;71553;-49
2023/10/13 14:38:07;;;;;;;0.50;0.40;;;;;;;16.19;100.00;100496.68;105026;1260;60651;-50
2023/10/13 14:40:35;;;;;;;0.60;0.40;;;;;;;16.15;100.00;100489.73;104954;1257;60613;-49
2023/10/13 14:43:04;;;;;;;4.00;0.50;;;;;;;16.10;100.00;100488.59;104767;1256;73913;-50
2023/10/13 14:45:33;;;;;;;0.70;0.40;;;;;;;16.03;100.00;100488.08;104606;1257;67735;-49
2023/10/13 14:48:01;;;;;;;1.80;0.50;;;;;;;15.95;100.00;100485.11;104450;1257;72677;-50
2023/10/13 14:50:28;;;;;;;0.70;0.40;;;;;;;15.86;100.00;100487.83;104599;1261;60995;-51
2023/10/13 14:52:57;;;;;;;3.90;0.60;;;;;;;15.76;100.00;100491.65;104744;1256;60569;-50
2023/10/13 14:55:37;;;;;;;1.20;0.40;;;;;;;15.68;100.00;100491.25;104649;1259;74279;-49
2023/10/13 14:58:07;;;;;;;1.40;0.50;;;;;;;15.61;100.00;100492.55;105235;1256;66849;-50
2023/10/13 15:00:36;;;;;;;0.50;0.50;;;;;;;15.55;100.00;100490.90;106816;1259;71490;-51
2023/10/13 15:03:06;;;;;;;2.20;0.50;;;;;;;15.49;100.00;100489.23;104735;1260;60591;-50
2023/10/13 15:05:38;;;;;;;1.40;0.60;;;;;;;15.41;100.00;100487.14;104680;1259;60434;-49
2023/10/13 15:08:06;;;;;;;5.40;0.60;;;;;;;15.33;100.00;100485.80;106191;1262;72898;-49
2023/10/13 15:10:36;;;;;;;3.60;0.90;;;;;;;15.24;100.00;100482.84;105077;1254;66861;-50
2023/10/13 15:13:05;;;;;;;4.40;0.50;;;;;;;15.15;100.00;100484.95;104545;1256;73141;-50
2023/10/13 15:15:32;;;;;;;1.60;0.50;;;;;;;15.07;100.00;100491.21;108205;1256;60486;-49